createdAt,value
2018-05-10T00:02:08.877Z,27.30
2018-05-10T00:04:36.380Z,27.30
2018-05-10T00:07:03.858Z,27.20
2018-05-10T00:09:34.995Z,27.10
2018-05-10T00:12:02.471Z,27.10
2018-05-10T00:14:31.487Z,27.10
2018-05-10T00:16:59.758Z,27.10
2018-05-10T00:19:28.045Z,27.10
2018-05-10T00:21:56.296Z,27.00
2018-05-10T00:24:24.729Z,26.90
2018-05-10T00:26:52.127Z,26.90
2018-05-10T00:29:19.588Z,26.80
2018-05-10T00:31:47.090Z,26.80
2018-05-10T00:34:15.349Z,26.80
2018-05-10T00:36:43.699Z,26.80
2018-05-10T00:39:11.181Z,26.70
2018-05-10T00:41:38.720Z,26.70
2018-05-10T00:44:07.085Z,26.60
2018-05-10T00:46:34.576Z,26.50
2018-05-10T00:49:02.061Z,26.50
2018-05-10T00:51:30.301Z,26.50
2018-05-10T00:53:57.801Z,26.50
2018-05-10T00:56:25.315Z,26.50
2018-05-10T00:58:52.768Z,26.50
2018-05-10T01:01:20.230Z,26.40
2018-05-10T01:03:47.684Z,26.40
2018-05-10T01:06:15.157Z,26.40
2018-05-10T01:08:42.612Z,26.30
2018-05-10T01:11:10.865Z,26.30
2018-05-10T01:13:39.075Z,26.30
2018-05-10T01:16:07.315Z,26.20
2018-05-10T01:18:34.785Z,26.20
2018-05-10T01:21:02.256Z,26.20
2018-05-10T01:23:30.493Z,26.20
2018-05-10T01:25:57.964Z,26.20
2018-05-10T01:28:25.424Z,26.10
2018-05-10T01:30:52.888Z,26.00
2018-05-10T01:33:20.369Z,26.00
2018-05-10T01:35:59.605Z,26.00
2018-05-10T01:38:27.833Z,26.00
2018-05-10T01:40:55.290Z,26.00
2018-05-10T01:43:22.765Z,26.00
2018-05-10T01:45:50.220Z,25.90
2018-05-10T01:48:17.684Z,25.90
2018-05-10T01:50:45.145Z,25.80
2018-05-10T01:53:12.626Z,25.90
2018-05-10T01:55:40.081Z,25.80
2018-05-10T01:58:07.540Z,25.80
2018-05-10T02:00:35.015Z,25.80
2018-05-10T02:03:02.474Z,25.80
2018-05-10T02:05:29.933Z,25.80
2018-05-10T02:07:57.389Z,25.70
2018-05-10T02:10:24.845Z,25.70
2018-05-10T02:12:53.076Z,25.60
2018-05-10T02:15:21.301Z,25.60
2018-05-10T02:17:49.532Z,25.60
2018-05-10T02:20:17.011Z,25.60
2018-05-10T02:22:44.473Z,25.60
2018-05-10T02:25:11.921Z,25.50
2018-05-10T02:27:39.384Z,25.50
2018-05-10T02:30:06.846Z,25.50
2018-05-10T02:32:34.296Z,25.50
2018-05-10T02:35:02.541Z,25.40
2018-05-10T02:37:30.005Z,25.40
2018-05-10T02:39:57.489Z,25.40
2018-05-10T02:42:24.944Z,25.40
2018-05-10T02:44:52.442Z,25.40
2018-05-10T02:47:20.655Z,25.30
2018-05-10T02:49:48.137Z,25.30
2018-05-10T02:52:15.591Z,25.30
2018-05-10T02:54:43.052Z,25.30
2018-05-10T02:57:10.508Z,25.30
2018-05-10T02:59:37.965Z,25.30
2018-05-10T03:02:05.423Z,25.20
2018-05-10T03:04:33.082Z,25.20
2018-05-10T03:07:00.541Z,25.10
2018-05-10T03:09:27.990Z,25.10
2018-05-10T03:11:55.457Z,25.10
2018-05-10T03:14:22.912Z,25.00
2018-05-10T03:16:50.369Z,25.00
2018-05-10T03:19:17.812Z,25.00
2018-05-10T03:21:46.064Z,25.00
2018-05-10T03:24:13.537Z,24.90
2018-05-10T03:26:41.016Z,25.00
2018-05-10T03:29:08.460Z,25.00
2018-05-10T03:31:35.936Z,24.90
2018-05-10T03:34:03.392Z,24.90
2018-05-10T03:36:30.849Z,24.90
2018-05-10T03:38:58.309Z,24.80
2018-05-10T03:41:25.763Z,24.80
2018-05-10T03:43:53.211Z,24.80
2018-05-10T03:46:20.736Z,24.80
2018-05-10T03:48:48.928Z,24.70
2018-05-10T03:51:16.384Z,24.70
2018-05-10T03:53:43.840Z,24.70
2018-05-10T03:56:11.308Z,24.70
2018-05-10T03:58:38.764Z,24.70
2018-05-10T04:01:06.252Z,24.60
2018-05-10T04:03:46.313Z,24.50
2018-05-10T04:06:25.613Z,24.50
2018-05-10T04:09:04.953Z,24.50
2018-05-10T04:11:33.224Z,24.50
2018-05-10T04:14:00.725Z,24.50
2018-05-10T04:16:28.964Z,24.40
2018-05-10T04:18:56.432Z,24.40
2018-05-10T04:21:23.894Z,24.50
2018-05-10T04:23:51.340Z,24.40
2018-05-10T04:26:18.801Z,24.40
2018-05-10T04:28:46.248Z,24.50
2018-05-10T04:31:14.482Z,24.40
2018-05-10T04:33:42.691Z,24.40
2018-05-10T04:36:10.164Z,24.40
2018-05-10T04:38:38.395Z,24.40
2018-05-10T04:41:06.620Z,24.30
2018-05-10T04:43:34.086Z,24.30
2018-05-10T04:46:01.568Z,24.40
2018-05-10T04:48:29.783Z,24.40
2018-05-10T04:50:57.252Z,24.40
2018-05-10T04:53:24.708Z,24.40
2018-05-10T04:55:52.167Z,24.40
2018-05-10T04:58:19.625Z,24.40
2018-05-10T05:00:47.092Z,24.30
2018-05-10T05:03:14.540Z,24.40
2018-05-10T05:05:47.988Z,24.40
2018-05-10T05:08:15.451Z,24.30
2018-05-10T05:10:43.684Z,24.30
2018-05-10T05:13:11.137Z,24.30
2018-05-10T05:15:38.596Z,24.30
2018-05-10T05:18:06.052Z,24.30
2018-05-10T05:20:33.504Z,24.30
2018-05-10T05:23:00.965Z,24.40
2018-05-10T05:25:28.511Z,24.40
2018-05-10T05:27:56.672Z,24.40
2018-05-10T05:30:24.128Z,24.40
2018-05-10T05:32:51.612Z,24.40
2018-05-10T05:35:19.060Z,24.40
2018-05-10T05:37:46.524Z,24.50
2018-05-10T05:40:13.977Z,24.40
2018-05-10T05:42:41.427Z,24.50
2018-05-10T05:45:08.891Z,24.50
2018-05-10T05:47:36.344Z,24.50
2018-05-10T05:50:03.807Z,24.50
2018-05-10T05:52:31.275Z,24.50
2018-05-10T05:54:58.776Z,24.50
2018-05-10T05:57:26.212Z,24.60
2018-05-10T05:59:53.722Z,24.60
2018-05-10T06:02:21.193Z,24.60
2018-05-10T06:04:49.408Z,24.70
2018-05-10T06:07:16.884Z,24.70
2018-05-10T06:09:44.344Z,24.80
2018-05-10T06:12:11.816Z,24.80
2018-05-10T06:14:39.277Z,24.80
2018-05-10T06:17:06.735Z,24.90
2018-05-10T06:19:34.202Z,25.00
2018-05-10T06:22:01.668Z,25.00
2018-05-10T06:24:29.124Z,25.00
2018-05-10T06:26:57.364Z,25.20
2018-05-10T06:29:24.821Z,25.20
2018-05-10T06:31:52.302Z,25.30
2018-05-10T06:34:19.784Z,25.40
2018-05-10T06:36:47.256Z,25.50
2018-05-10T06:39:16.227Z,25.70
2018-05-10T06:41:43.679Z,25.70
2018-05-10T06:44:11.140Z,25.80
2018-05-10T06:46:38.617Z,25.90
2018-05-10T06:49:06.068Z,26.00
2018-05-10T06:51:33.521Z,26.10
2018-05-10T06:54:00.990Z,26.20
2018-05-10T06:56:28.452Z,26.30
2018-05-10T06:58:57.432Z,26.30
2018-05-10T07:01:24.906Z,26.40
2018-05-10T07:03:52.368Z,26.60
2018-05-10T07:06:19.815Z,26.60
2018-05-10T07:08:47.269Z,26.70
2018-05-10T07:11:14.719Z,26.80
2018-05-10T07:13:42.172Z,27.00
2018-05-10T07:16:09.620Z,27.10
2018-05-10T07:18:37.088Z,27.10
2018-05-10T07:21:04.535Z,27.20
2018-05-10T07:23:31.996Z,27.30
2018-05-10T07:25:59.458Z,27.40
2018-05-10T07:28:26.916Z,27.60
2018-05-10T07:30:54.364Z,27.70
2018-05-10T07:33:22.606Z,27.90
2018-05-10T07:35:50.822Z,28.10
2018-05-10T07:38:18.280Z,28.10
2018-05-10T07:40:45.818Z,28.30
2018-05-10T07:43:13.196Z,28.40
2018-05-10T07:45:40.662Z,28.50
2018-05-10T07:48:08.132Z,28.70
2018-05-10T07:50:35.600Z,28.80
2018-05-10T07:53:03.139Z,28.90
2018-05-10T07:55:30.555Z,29.10
2018-05-10T07:57:58.768Z,29.30
2018-05-10T08:00:26.228Z,29.30
2018-05-10T08:02:53.729Z,29.50
2018-05-10T08:05:21.208Z,28.00
2018-05-10T08:07:48.691Z,26.30
2018-05-10T08:10:16.157Z,25.40
2018-05-10T08:12:43.626Z,25.50
2018-05-10T08:15:11.077Z,25.20
2018-05-10T08:17:38.545Z,25.10
2018-05-10T08:20:06.805Z,24.70
2018-05-10T08:22:35.792Z,24.80
2018-05-10T08:25:04.789Z,24.70
2018-05-10T08:27:52.128Z,24.70
2018-05-10T08:30:19.601Z,24.40
2018-05-10T08:32:47.076Z,24.60
2018-05-10T08:35:15.313Z,24.40
2018-05-10T08:37:42.785Z,24.40
2018-05-10T08:40:10.262Z,24.50
2018-05-10T08:42:38.491Z,24.40
2018-05-10T08:45:06.048Z,24.40
2018-05-10T08:47:33.433Z,24.10
2018-05-10T08:50:00.916Z,24.30
2018-05-10T08:52:29.149Z,24.50
2018-05-10T08:54:57.399Z,24.70
2018-05-10T08:57:26.820Z,24.70
2018-05-10T08:59:54.327Z,25.00
2018-05-10T09:02:21.753Z,25.20
2018-05-10T09:04:50.010Z,25.10
2018-05-10T09:07:17.480Z,25.10
2018-05-10T09:09:44.948Z,24.50
2018-05-10T09:12:12.412Z,24.20
2018-05-10T09:14:40.656Z,24.70
2018-05-10T09:17:08.126Z,24.70
2018-05-10T09:19:35.618Z,25.10
2018-05-10T09:22:03.125Z,25.40
2018-05-10T09:24:31.418Z,25.40
2018-05-10T09:26:58.941Z,25.40
2018-05-10T09:29:26.530Z,25.50
2018-05-10T09:31:53.987Z,25.60
2018-05-10T09:34:21.448Z,25.80
2018-05-10T09:36:48.912Z,25.50
2018-05-10T09:39:17.321Z,25.40
2018-05-10T09:41:44.747Z,25.40
2018-05-10T09:44:12.243Z,26.00
2018-05-10T09:46:40.483Z,26.60
2018-05-10T09:49:08.749Z,27.50
2018-05-10T09:51:37.025Z,28.30
2018-05-10T09:54:04.507Z,28.30
2018-05-10T09:56:31.989Z,28.50
2018-05-10T09:59:00.317Z,29.10
2018-05-10T10:01:27.780Z,29.10
2018-05-10T10:03:55.244Z,29.30
2018-05-10T10:06:22.700Z,29.60
2018-05-10T10:08:51.890Z,30.00
2018-05-10T10:11:19.360Z,29.90
2018-05-10T10:13:46.829Z,30.00
2018-05-10T10:16:14.285Z,30.30
2018-05-10T10:18:41.782Z,30.20
2018-05-10T10:21:09.240Z,30.30
2018-05-10T10:23:37.661Z,30.60
2018-05-10T10:26:05.136Z,30.60
2018-05-10T10:28:32.593Z,30.60
2018-05-10T10:31:00.049Z,30.30
2018-05-10T10:33:27.576Z,29.50
2018-05-10T10:35:55.040Z,29.60
2018-05-10T10:38:22.549Z,29.50
2018-05-10T10:40:50.012Z,29.40
2018-05-10T10:43:18.233Z,28.30
2018-05-10T10:45:45.697Z,28.30
2018-05-10T10:48:13.169Z,28.90
2018-05-10T10:50:40.628Z,29.70
2018-05-10T10:53:08.120Z,30.10
2018-05-10T10:55:36.341Z,29.80
2018-05-10T10:58:03.816Z,29.80
2018-05-10T11:00:31.302Z,30.20
2018-05-10T11:02:58.783Z,30.30
2018-05-10T11:05:27.044Z,30.30
2018-05-10T11:07:55.268Z,30.20
2018-05-10T11:10:22.736Z,30.20
2018-05-10T11:12:51.844Z,29.90
2018-05-10T11:15:19.296Z,29.90
2018-05-10T11:17:47.526Z,30.40
2018-05-10T11:20:15.005Z,30.40
2018-05-10T11:22:42.501Z,30.10
2018-05-10T11:25:10.028Z,29.70
2018-05-10T11:27:37.498Z,28.80
2018-05-10T11:30:04.962Z,28.60
2018-05-10T11:32:32.420Z,28.50
2018-05-10T11:34:59.933Z,28.80
2018-05-10T11:37:27.540Z,28.60
2018-05-10T11:39:55.033Z,28.20
2018-05-10T11:42:23.261Z,28.20
2018-05-10T11:44:50.731Z,28.10
2018-05-10T11:47:18.188Z,28.10
2018-05-10T11:49:45.676Z,27.80
2018-05-10T11:52:13.141Z,27.80
2018-05-10T11:54:40.613Z,27.80
2018-05-10T11:57:08.063Z,27.80
2018-05-10T11:59:35.551Z,27.70
2018-05-10T12:02:03.122Z,27.70
2018-05-10T12:04:30.577Z,27.70
2018-05-10T12:06:58.034Z,27.30
2018-05-10T12:09:27.522Z,26.90
2018-05-10T12:11:55.063Z,28.90
2018-05-10T12:14:23.302Z,30.10
2018-05-10T12:16:50.799Z,30.00
2018-05-10T12:19:19.066Z,29.40
2018-05-10T12:21:46.497Z,29.30
2018-05-10T12:24:13.980Z,28.50
2018-05-10T12:26:42.231Z,27.60
2018-05-10T12:29:12.320Z,27.20
2018-05-10T12:31:39.794Z,27.20
2018-05-10T12:34:07.310Z,27.00
2018-05-10T12:36:34.800Z,26.60
2018-05-10T12:39:02.779Z,26.20
2018-05-10T12:41:31.051Z,26.00
2018-05-10T12:43:58.528Z,26.00
2018-05-10T12:46:25.996Z,25.80
2018-05-10T12:48:53.502Z,25.60
2018-05-10T12:51:21.079Z,25.40
2018-05-10T12:53:48.528Z,25.40
2018-05-10T12:56:16.030Z,25.20
2018-05-10T12:58:43.490Z,25.00
2018-05-10T13:01:10.954Z,24.70
2018-05-10T13:03:39.196Z,25.60
2018-05-10T13:06:06.680Z,25.60
2018-05-10T13:08:34.165Z,26.30
2018-05-10T13:11:01.624Z,26.60
2018-05-10T13:13:29.113Z,26.80
2018-05-10T13:15:56.658Z,26.80
2018-05-10T13:18:24.893Z,27.20
2018-05-10T13:20:52.365Z,27.10
2018-05-10T13:23:19.842Z,27.30
2018-05-10T13:25:47.331Z,27.50
2018-05-10T13:28:14.884Z,27.70
2018-05-10T13:30:42.342Z,27.80
2018-05-10T13:33:09.846Z,27.70
2018-05-10T13:35:37.382Z,27.80
2018-05-10T13:38:04.843Z,27.90
2018-05-10T13:40:32.384Z,27.80
2018-05-10T13:42:59.833Z,27.70
2018-05-10T13:45:27.329Z,27.60
2018-05-10T13:47:54.922Z,27.50
2018-05-10T13:50:22.467Z,27.60
2018-05-10T13:52:50.792Z,27.70
2018-05-10T13:55:18.255Z,27.70
2018-05-10T13:57:45.735Z,27.70
2018-05-10T14:00:14.723Z,27.90
2018-05-10T14:02:42.206Z,27.90
2018-05-10T14:05:10.449Z,28.10
2018-05-10T14:07:37.965Z,28.10
2018-05-10T14:10:06.209Z,28.20
2018-05-10T14:12:33.680Z,28.20
2018-05-10T14:15:01.904Z,28.20
2018-05-10T14:17:29.379Z,28.20
2018-05-10T14:19:56.880Z,28.10
2018-05-10T14:22:24.373Z,28.10
2018-05-10T14:24:51.831Z,28.00
2018-05-10T14:27:19.287Z,28.00
2018-05-10T14:29:46.743Z,28.20
2018-05-10T14:32:14.247Z,28.30
2018-05-10T14:34:42.440Z,28.70
2018-05-10T14:37:10.680Z,29.30
2018-05-10T14:39:38.172Z,29.20
2018-05-10T14:42:06.412Z,29.10
2018-05-10T14:44:33.869Z,29.10
2018-05-10T14:47:01.325Z,29.00
2018-05-10T14:49:28.784Z,28.80
2018-05-10T14:51:56.244Z,28.70
2018-05-10T14:54:23.716Z,28.30
2018-05-10T14:56:51.176Z,28.20
2018-05-10T14:59:20.149Z,28.10
2018-05-10T15:01:47.608Z,28.10
2018-05-10T15:04:15.068Z,28.30
2018-05-10T15:06:42.544Z,28.30
2018-05-10T15:09:10.005Z,28.30
2018-05-10T15:11:37.490Z,28.20
2018-05-10T15:14:05.740Z,28.10
2018-05-10T15:16:33.994Z,28.00
2018-05-10T15:19:01.461Z,28.00
2018-05-10T15:21:28.933Z,28.00
2018-05-10T15:23:56.388Z,28.00
2018-05-10T15:26:24.705Z,27.80
2018-05-10T15:28:52.152Z,27.80
2018-05-10T15:31:19.611Z,27.80
2018-05-10T15:33:47.065Z,27.70
2018-05-10T15:36:15.280Z,27.50
2018-05-10T15:38:44.661Z,27.50
2018-05-10T15:41:12.104Z,27.50
2018-05-10T15:43:39.564Z,27.50
2018-05-10T15:46:07.020Z,27.50
2018-05-10T15:48:34.478Z,27.50
2018-05-10T15:51:01.934Z,27.50
2018-05-10T15:53:29.393Z,27.50
2018-05-10T15:55:56.855Z,27.50
2018-05-10T15:58:24.318Z,27.50
2018-05-10T16:00:51.764Z,27.40
2018-05-10T16:03:19.235Z,27.50
2018-05-10T16:05:46.692Z,27.40
2018-05-10T16:08:14.150Z,27.40
2018-05-10T16:10:41.608Z,27.50
2018-05-10T16:13:09.080Z,27.50
2018-05-10T16:15:42.484Z,27.50
2018-05-10T16:18:10.025Z,27.40
2018-05-10T16:20:37.468Z,27.40
2018-05-10T16:23:04.934Z,27.30
2018-05-10T16:25:32.389Z,27.30
2018-05-10T16:27:59.868Z,27.30
2018-05-10T16:30:27.327Z,27.20
2018-05-10T16:32:54.857Z,27.20
2018-05-10T16:35:22.340Z,27.10
2018-05-10T16:37:50.929Z,27.00
2018-05-10T16:40:18.388Z,27.00
2018-05-10T16:42:45.867Z,27.00
2018-05-10T16:45:13.300Z,26.90
2018-05-10T16:47:40.773Z,26.90
2018-05-10T16:50:08.425Z,26.80
2018-05-10T16:52:36.650Z,26.60
2018-05-10T16:55:04.125Z,26.60
2018-05-10T16:57:31.606Z,26.60
2018-05-10T16:59:59.093Z,26.60
2018-05-10T17:02:26.576Z,26.50
2018-05-10T17:04:54.809Z,26.40
2018-05-10T17:07:22.307Z,26.30
2018-05-10T17:09:50.541Z,26.30
2018-05-10T17:12:18.051Z,26.30
2018-05-10T17:14:46.298Z,26.40
2018-05-10T17:17:13.777Z,26.30
2018-05-10T17:19:41.241Z,26.30
2018-05-10T17:22:09.469Z,26.30
2018-05-10T17:24:36.972Z,26.30
2018-05-10T17:27:05.198Z,26.30
2018-05-10T17:29:32.656Z,26.30
2018-05-10T17:32:01.003Z,26.30
2018-05-10T17:34:28.631Z,26.30
2018-05-10T17:36:56.086Z,26.30
2018-05-10T17:39:23.551Z,26.30
2018-05-10T17:41:51.056Z,26.30
2018-05-10T17:44:19.244Z,26.20
2018-05-10T17:46:46.791Z,26.20
2018-05-10T17:49:14.257Z,26.10
2018-05-10T17:51:41.725Z,26.10
2018-05-10T17:54:09.960Z,26.10
2018-05-10T17:56:38.372Z,26.00
2018-05-10T17:59:05.985Z,26.10
2018-05-10T18:01:33.402Z,26.00
2018-05-10T18:04:00.883Z,26.10
2018-05-10T18:06:28.352Z,26.00
2018-05-10T18:08:55.809Z,26.00
2018-05-10T18:11:23.282Z,26.00
2018-05-10T18:13:51.584Z,25.90
2018-05-10T18:16:19.005Z,25.90
2018-05-10T18:18:46.464Z,26.00
2018-05-10T18:21:13.915Z,26.00
2018-05-10T18:23:41.376Z,25.90
2018-05-10T18:26:08.843Z,25.90
2018-05-10T18:28:37.110Z,25.80
2018-05-10T18:31:04.595Z,25.80
2018-05-10T18:33:32.110Z,25.80
2018-05-10T18:35:59.561Z,25.80
2018-05-10T18:38:27.041Z,25.80
2018-05-10T18:40:55.293Z,25.80
2018-05-10T18:43:23.512Z,25.80
2018-05-10T18:45:51.750Z,25.80
2018-05-10T18:48:20.008Z,25.80
2018-05-10T18:50:47.485Z,25.80
2018-05-10T18:53:14.958Z,25.80
2018-05-10T18:55:43.940Z,25.80
2018-05-10T18:58:11.413Z,25.80
2018-05-10T19:00:38.875Z,25.80
2018-05-10T19:03:07.102Z,25.70
2018-05-10T19:05:34.595Z,25.70
2018-05-10T19:08:02.077Z,25.70
2018-05-10T19:10:30.312Z,25.60
2018-05-10T19:12:57.772Z,25.60
2018-05-10T19:15:25.400Z,25.60
2018-05-10T19:17:52.789Z,25.60
2018-05-10T19:20:20.276Z,25.60
2018-05-10T19:22:47.748Z,25.60
2018-05-10T19:25:15.981Z,25.70
2018-05-10T19:27:43.444Z,25.70
2018-05-10T19:30:10.919Z,25.70
2018-05-10T19:32:38.403Z,25.70
2018-05-10T19:35:06.630Z,25.70
2018-05-10T19:37:34.101Z,25.60
2018-05-10T19:40:01.573Z,25.80
2018-05-10T19:42:29.040Z,25.70
2018-05-10T19:44:57.308Z,25.70
2018-05-10T19:47:25.568Z,25.70
2018-05-10T19:49:53.040Z,25.60
2018-05-10T19:52:21.272Z,25.70
2018-05-10T19:54:48.741Z,25.70
2018-05-10T19:57:16.242Z,25.70
2018-05-10T19:59:44.497Z,25.70
2018-05-10T20:02:11.969Z,25.70
2018-05-10T20:04:40.215Z,25.60
2018-05-10T20:07:07.684Z,25.60
2018-05-10T20:09:35.181Z,25.70
2018-05-10T20:12:02.619Z,25.60
2018-05-10T20:14:30.078Z,25.60
2018-05-10T20:16:58.326Z,25.60
2018-05-10T20:19:25.831Z,25.60
2018-05-10T20:21:53.269Z,25.60
2018-05-10T20:24:20.754Z,25.60
2018-05-10T20:26:48.218Z,25.60
2018-05-10T20:29:15.668Z,25.60
2018-05-10T20:31:43.124Z,25.60
2018-05-10T20:34:10.585Z,25.60
2018-05-10T20:36:38.065Z,25.50
2018-05-10T20:39:05.579Z,25.50
2018-05-10T20:41:33.882Z,25.60
2018-05-10T20:44:01.302Z,25.60
2018-05-10T20:46:28.760Z,25.60
2018-05-10T20:48:56.247Z,25.60
2018-05-10T20:51:23.725Z,25.50
2018-05-10T20:53:51.209Z,25.50
2018-05-10T20:56:18.673Z,25.50
2018-05-10T20:58:46.133Z,25.50
2018-05-10T21:01:13.591Z,25.50
2018-05-10T21:03:41.051Z,25.40
2018-05-10T21:06:09.093Z,25.40
2018-05-10T21:08:36.543Z,25.40
2018-05-10T21:11:04.036Z,25.40
2018-05-10T21:13:31.493Z,25.30
2018-05-10T21:16:00.483Z,25.30
2018-05-10T21:18:27.935Z,25.30
2018-05-10T21:20:55.420Z,25.30
2018-05-10T21:23:22.880Z,25.30
2018-05-10T21:25:51.109Z,25.20
2018-05-10T21:28:20.482Z,25.20
2018-05-10T21:30:48.731Z,25.20
2018-05-10T21:33:16.195Z,25.20
2018-05-10T21:35:43.700Z,25.20
2018-05-10T21:38:11.240Z,25.10
2018-05-10T21:40:38.641Z,25.10
2018-05-10T21:43:06.117Z,25.10
2018-05-10T21:45:34.373Z,25.10
2018-05-10T21:48:01.828Z,25.10
2018-05-10T21:50:29.288Z,25.00
2018-05-10T21:52:56.745Z,25.00
2018-05-10T21:55:24.199Z,25.00
2018-05-10T21:57:51.660Z,25.00
2018-05-10T22:00:19.132Z,25.00
2018-05-10T22:02:46.580Z,25.00
2018-05-10T22:05:14.800Z,25.00
2018-05-10T22:07:42.256Z,24.90
2018-05-10T22:10:09.716Z,24.90
2018-05-10T22:12:37.168Z,24.90
2018-05-10T22:15:04.629Z,24.80
2018-05-10T22:17:32.852Z,24.90
2018-05-10T22:20:00.320Z,24.90
2018-05-10T22:22:27.889Z,24.90
2018-05-10T22:24:55.345Z,24.80
2018-05-10T22:27:22.805Z,24.90
2018-05-10T22:29:51.038Z,24.90
2018-05-10T22:32:18.492Z,24.90
2018-05-10T22:34:45.964Z,24.80
2018-05-10T22:37:13.433Z,24.80
2018-05-10T22:39:40.887Z,24.80
2018-05-10T22:42:08.354Z,24.80
2018-05-10T22:44:36.133Z,24.70
2018-05-10T22:47:03.592Z,24.70
2018-05-10T22:49:31.056Z,24.70
2018-05-10T22:51:58.519Z,24.80
2018-05-10T22:54:25.985Z,24.70
2018-05-10T22:56:53.448Z,24.70
2018-05-10T22:59:20.901Z,24.70
2018-05-10T23:01:48.374Z,24.60
2018-05-10T23:04:15.820Z,24.70
2018-05-10T23:06:43.278Z,24.70
2018-05-10T23:09:10.737Z,24.70
2018-05-10T23:11:38.195Z,24.70
2018-05-10T23:14:05.650Z,24.60
2018-05-10T23:16:33.943Z,24.60
2018-05-10T23:19:01.360Z,24.60
2018-05-10T23:21:28.821Z,24.60
2018-05-10T23:23:56.272Z,24.60
2018-05-10T23:26:23.737Z,24.60
2018-05-10T23:28:51.189Z,24.60
2018-05-10T23:31:18.648Z,24.60
2018-05-10T23:33:48.252Z,24.60
2018-05-10T23:36:15.716Z,24.60
2018-05-10T23:38:43.936Z,24.60
2018-05-10T23:41:11.411Z,24.60
2018-05-10T23:43:38.873Z,24.60
2018-05-10T23:46:06.345Z,24.60
2018-05-10T23:48:33.805Z,24.60
2018-05-10T23:51:01.268Z,24.60
2018-05-10T23:53:28.728Z,24.60
2018-05-10T23:55:56.970Z,24.50
2018-05-10T23:58:24.437Z,24.50
